sensor_id;sensor_type;location;lat;lon;timestamp;P1;durP1;ratioP1;P2;durP2;ratioP2
9459;SDS011;4768;42.664;23.240;2023-02-28T00:00:11;0.60;;;0.60;;
9459;SDS011;4768;42.664;23.240;2023-02-28T00:02:41;0.43;;;0.43;;
9459;SDS011;4768;42.664;23.240;2023-02-28T00:05:10;0.10;;;0.10;;
9459;SDS011;4768;42.664;23.240;2023-02-28T00:07:37;2.00;;;0.83;;
9459;SDS011;4768;42.664;23.240;2023-02-28T00:10:07;0.30;;;0.30;;
9459;SDS011;4768;42.664;23.240;2023-02-28T00:12:35;0.40;;;0.30;;
9459;SDS011;4768;42.664;23.240;2023-02-28T00:15:05;0.33;;;0.33;;
9459;SDS011;4768;42.664;23.240;2023-02-28T00:17:33;0.53;;;0.20;;
9459;SDS011;4768;42.664;23.240;2023-02-28T00:20:00;0.10;;;0.10;;
9459;SDS011;4768;42.664;23.240;2023-02-28T00:22:36;0.07;;;0.07;;
9459;SDS011;4768;42.664;23.240;2023-02-28T00:25:04;3.50;;;0.40;;
9459;SDS011;4768;42.664;23.240;2023-02-28T00:27:33;0.10;;;0.10;;
9459;SDS011;4768;42.664;23.240;2023-02-28T00:30:01;0.30;;;0.30;;
9459;SDS011;4768;42.664;23.240;2023-02-28T00:32:29;0.00;;;0.00;;
9459;SDS011;4768;42.664;23.240;2023-02-28T00:34:56;0.00;;;0.00;;
9459;SDS011;4768;42.664;23.240;2023-02-28T00:37:22;0.10;;;0.10;;
9459;SDS011;4768;42.664;23.240;2023-02-28T00:39:49;0.20;;;0.20;;
9459;SDS011;4768;42.664;23.240;2023-02-28T00:42:17;0.57;;;0.50;;
9459;SDS011;4768;42.664;23.240;2023-02-28T00:44:44;0.37;;;0.37;;
9459;SDS011;4768;42.664;23.240;2023-02-28T00:47:11;1.00;;;0.70;;
9459;SDS011;4768;42.664;23.240;2023-02-28T00:49:37;0.50;;;0.50;;
9459;SDS011;4768;42.664;23.240;2023-02-28T00:52:04;0.20;;;0.20;;
9459;SDS011;4768;42.664;23.240;2023-02-28T00:54:31;0.23;;;0.23;;
9459;SDS011;4768;42.664;23.240;2023-02-28T00:56:58;0.07;;;0.07;;
9459;SDS011;4768;42.664;23.240;2023-02-28T00:59:26;0.10;;;0.10;;
9459;SDS011;4768;42.664;23.240;2023-02-28T01:01:53;0.10;;;0.10;;
9459;SDS011;4768;42.664;23.240;2023-02-28T01:04:19;1.60;;;0.87;;
9459;SDS011;4768;42.664;23.240;2023-02-28T01:06:46;0.20;;;0.20;;
9459;SDS011;4768;42.664;23.240;2023-02-28T01:09:13;0.40;;;0.40;;
9459;SDS011;4768;42.664;23.240;2023-02-28T01:11:40;0.40;;;0.40;;
9459;SDS011;4768;42.664;23.240;2023-02-28T01:14:10;0.73;;;0.20;;
9459;SDS011;4768;42.664;23.240;2023-02-28T01:16:40;1.83;;;0.37;;
9459;SDS011;4768;42.664;23.240;2023-02-28T01:19:07;0.80;;;0.70;;
9459;SDS011;4768;42.664;23.240;2023-02-28T01:21:34;1.63;;;0.40;;
9459;SDS011;4768;42.664;23.240;2023-02-28T01:24:01;0.53;;;0.30;;
9459;SDS011;4768;42.664;23.240;2023-02-28T01:26:28;0.97;;;0.63;;
9459;SDS011;4768;42.664;23.240;2023-02-28T01:28:55;1.17;;;0.30;;
9459;SDS011;4768;42.664;23.240;2023-02-28T01:31:23;0.10;;;0.10;;
9459;SDS011;4768;42.664;23.240;2023-02-28T01:33:51;1.37;;;0.80;;
9459;SDS011;4768;42.664;23.240;2023-02-28T01:36:19;0.63;;;0.63;;
9459;SDS011;4768;42.664;23.240;2023-02-28T01:38:47;0.33;;;0.33;;
9459;SDS011;4768;42.664;23.240;2023-02-28T01:41:16;0.10;;;0.10;;
9459;SDS011;4768;42.664;23.240;2023-02-28T01:43:57;0.60;;;0.60;;
9459;SDS011;4768;42.664;23.240;2023-02-28T01:46:28;0.33;;;0.30;;
9459;SDS011;4768;42.664;23.240;2023-02-28T01:48:58;1.90;;;0.50;;
9459;SDS011;4768;42.664;23.240;2023-02-28T01:51:30;0.37;;;0.23;;
9459;SDS011;4768;42.664;23.240;2023-02-28T01:54:05;1.00;;;0.93;;
9459;SDS011;4768;42.664;23.240;2023-02-28T01:56:38;0.77;;;0.50;;
9459;SDS011;4768;42.664;23.240;2023-02-28T01:59:10;0.87;;;0.87;;
9459;SDS011;4768;42.664;23.240;2023-02-28T02:01:40;0.40;;;0.40;;
9459;SDS011;4768;42.664;23.240;2023-02-28T02:04:09;0.63;;;0.50;;
9459;SDS011;4768;42.664;23.240;2023-02-28T02:06:37;0.50;;;0.23;;
9459;SDS011;4768;42.664;23.240;2023-02-28T02:09:06;0.10;;;0.10;;
9459;SDS011;4768;42.664;23.240;2023-02-28T02:11:33;0.10;;;0.10;;
9459;SDS011;4768;42.664;23.240;2023-02-28T02:14:09;1.60;;;0.50;;
9459;SDS011;4768;42.664;23.240;2023-02-28T02:16:52;1.27;;;0.63;;
9459;SDS011;4768;42.664;23.240;2023-02-28T02:19:54;0.20;;;0.20;;
9459;SDS011;4768;42.664;23.240;2023-02-28T02:23:02;0.40;;;0.40;;
9459;SDS011;4768;42.664;23.240;2023-02-28T02:25:56;0.40;;;0.40;;
9459;SDS011;4768;42.664;23.240;2023-02-28T02:28:53;0.03;;;0.03;;
9459;SDS011;4768;42.664;23.240;2023-02-28T02:32:00;2.00;;;0.10;;
9459;SDS011;4768;42.664;23.240;2023-02-28T02:34:51;0.00;;;0.00;;
9459;SDS011;4768;42.664;23.240;2023-02-28T02:37:27;0.67;;;0.67;;
9459;SDS011;4768;42.664;23.240;2023-02-28T02:40:02;0.27;;;0.20;;
9459;SDS011;4768;42.664;23.240;2023-02-28T02:42:40;0.10;;;0.10;;
9459;SDS011;4768;42.664;23.240;2023-02-28T02:45:11;2.00;;;0.23;;
9459;SDS011;4768;42.664;23.240;2023-02-28T02:47:43;0.20;;;0.20;;
9459;SDS011;4768;42.664;23.240;2023-02-28T02:50:16;0.43;;;0.43;;
9459;SDS011;4768;42.664;23.240;2023-02-28T02:52:49;0.93;;;0.77;;
9459;SDS011;4768;42.664;23.240;2023-02-28T02:55:19;0.13;;;0.07;;
9459;SDS011;4768;42.664;23.240;2023-02-28T02:57:48;2.27;;;0.33;;
9459;SDS011;4768;42.664;23.240;2023-02-28T03:00:19;0.30;;;0.30;;
9459;SDS011;4768;42.664;23.240;2023-02-28T03:02:50;1.87;;;0.27;;
9459;SDS011;4768;42.664;23.240;2023-02-28T03:05:23;0.00;;;0.00;;
9459;SDS011;4768;42.664;23.240;2023-02-28T03:07:52;0.17;;;0.17;;
9459;SDS011;4768;42.664;23.240;2023-02-28T03:10:27;0.07;;;0.07;;
9459;SDS011;4768;42.664;23.240;2023-02-28T03:12:57;0.10;;;0.10;;
9459;SDS011;4768;42.664;23.240;2023-02-28T03:15:36;0.60;;;0.60;;
9459;SDS011;4768;42.664;23.240;2023-02-28T03:18:18;0.20;;;0.20;;
9459;SDS011;4768;42.664;23.240;2023-02-28T03:20:54;0.50;;;0.40;;
9459;SDS011;4768;42.664;23.240;2023-02-28T03:23:29;0.10;;;0.10;;
9459;SDS011;4768;42.664;23.240;2023-02-28T03:26:05;0.40;;;0.40;;
9459;SDS011;4768;42.664;23.240;2023-02-28T03:28:40;0.97;;;0.93;;
9459;SDS011;4768;42.664;23.240;2023-02-28T03:31:14;0.60;;;0.60;;
9459;SDS011;4768;42.664;23.240;2023-02-28T03:33:47;0.53;;;0.30;;
9459;SDS011;4768;42.664;23.240;2023-02-28T03:38:47;0.00;;;0.00;;
9459;SDS011;4768;42.664;23.240;2023-02-28T03:41:19;1.83;;;0.40;;
9459;SDS011;4768;42.664;23.240;2023-02-28T03:43:49;0.37;;;0.10;;
9459;SDS011;4768;42.664;23.240;2023-02-28T03:46:21;0.57;;;0.47;;
9459;SDS011;4768;42.664;23.240;2023-02-28T03:48:52;0.20;;;0.20;;
9459;SDS011;4768;42.664;23.240;2023-02-28T03:51:22;3.00;;;0.73;;
9459;SDS011;4768;42.664;23.240;2023-02-28T03:53:54;0.50;;;0.50;;
9459;SDS011;4768;42.664;23.240;2023-02-28T03:56:24;0.13;;;0.13;;
9459;SDS011;4768;42.664;23.240;2023-02-28T03:58:58;0.30;;;0.30;;
9459;SDS011;4768;42.664;23.240;2023-02-28T04:01:31;1.60;;;0.23;;
9459;SDS011;4768;42.664;23.240;2023-02-28T04:04:02;1.17;;;0.90;;
9459;SDS011;4768;42.664;23.240;2023-02-28T04:06:30;0.33;;;0.33;;
9459;SDS011;4768;42.664;23.240;2023-02-28T04:09:00;0.50;;;0.50;;
9459;SDS011;4768;42.664;23.240;2023-02-28T04:11:27;0.93;;;0.53;;
9459;SDS011;4768;42.664;23.240;2023-02-28T04:13:59;0.57;;;0.53;;
9459;SDS011;4768;42.664;23.240;2023-02-28T04:16:27;0.90;;;0.67;;
9459;SDS011;4768;42.664;23.240;2023-02-28T04:18:54;0.60;;;0.53;;
9459;SDS011;4768;42.664;23.240;2023-02-28T04:21:26;0.63;;;0.40;;
9459;SDS011;4768;42.664;23.240;2023-02-28T04:23:53;0.13;;;0.13;;
9459;SDS011;4768;42.664;23.240;2023-02-28T04:28:47;0.60;;;0.60;;
9459;SDS011;4768;42.664;23.240;2023-02-28T04:31:14;1.87;;;0.90;;
9459;SDS011;4768;42.664;23.240;2023-02-28T04:33:40;0.10;;;0.10;;
9459;SDS011;4768;42.664;23.240;2023-02-28T04:36:07;0.47;;;0.47;;
9459;SDS011;4768;42.664;23.240;2023-02-28T04:38:35;1.17;;;1.07;;
9459;SDS011;4768;42.664;23.240;2023-02-28T04:41:03;2.40;;;0.87;;
9459;SDS011;4768;42.664;23.240;2023-02-28T04:43:31;0.83;;;0.63;;
9459;SDS011;4768;42.664;23.240;2023-02-28T04:46:00;2.20;;;0.73;;
9459;SDS011;4768;42.664;23.240;2023-02-28T04:48:29;2.10;;;0.60;;
9459;SDS011;4768;42.664;23.240;2023-02-28T04:50:59;0.57;;;0.57;;
9459;SDS011;4768;42.664;23.240;2023-02-28T04:53:27;1.10;;;0.70;;
9459;SDS011;4768;42.664;23.240;2023-02-28T04:55:54;0.03;;;0.03;;
9459;SDS011;4768;42.664;23.240;2023-02-28T04:58:20;0.77;;;0.53;;
9459;SDS011;4768;42.664;23.240;2023-02-28T05:00:48;0.83;;;0.67;;
9459;SDS011;4768;42.664;23.240;2023-02-28T05:03:16;0.80;;;0.27;;
9459;SDS011;4768;42.664;23.240;2023-02-28T05:05:43;2.07;;;1.20;;
9459;SDS011;4768;42.664;23.240;2023-02-28T05:08:10;0.80;;;0.70;;
9459;SDS011;4768;42.664;23.240;2023-02-28T05:10:36;2.43;;;0.50;;
9459;SDS011;4768;42.664;23.240;2023-02-28T05:13:03;0.53;;;0.50;;
9459;SDS011;4768;42.664;23.240;2023-02-28T05:15:30;4.23;;;1.90;;
9459;SDS011;4768;42.664;23.240;2023-02-28T05:17:57;1.03;;;0.87;;
9459;SDS011;4768;42.664;23.240;2023-02-28T05:20:25;0.43;;;0.33;;
9459;SDS011;4768;42.664;23.240;2023-02-28T05:22:51;0.27;;;0.27;;
9459;SDS011;4768;42.664;23.240;2023-02-28T05:25:19;1.17;;;0.60;;
9459;SDS011;4768;42.664;23.240;2023-02-28T05:27:47;1.07;;;0.90;;
9459;SDS011;4768;42.664;23.240;2023-02-28T05:30:15;2.03;;;0.97;;
9459;SDS011;4768;42.664;23.240;2023-02-28T05:32:42;2.47;;;1.57;;
9459;SDS011;4768;42.664;23.240;2023-02-28T05:35:09;0.10;;;0.10;;
9459;SDS011;4768;42.664;23.240;2023-02-28T05:37:38;1.70;;;0.60;;
9459;SDS011;4768;42.664;23.240;2023-02-28T05:40:05;1.67;;;0.80;;
9459;SDS011;4768;42.664;23.240;2023-02-28T05:42:35;0.10;;;0.10;;
9459;SDS011;4768;42.664;23.240;2023-02-28T05:45:02;0.53;;;0.50;;
9459;SDS011;4768;42.664;23.240;2023-02-28T05:47:30;0.47;;;0.47;;
9459;SDS011;4768;42.664;23.240;2023-02-28T05:49:56;0.93;;;0.20;;
9459;SDS011;4768;42.664;23.240;2023-02-28T05:52:23;0.80;;;0.80;;
9459;SDS011;4768;42.664;23.240;2023-02-28T05:54:51;2.03;;;1.07;;
9459;SDS011;4768;42.664;23.240;2023-02-28T05:57:18;1.93;;;1.50;;
9459;SDS011;4768;42.664;23.240;2023-02-28T05:59:45;1.50;;;1.07;;
9459;SDS011;4768;42.664;23.240;2023-02-28T06:02:12;0.50;;;0.50;;
9459;SDS011;4768;42.664;23.240;2023-02-28T06:04:41;0.97;;;0.80;;
9459;SDS011;4768;42.664;23.240;2023-02-28T06:07:08;0.20;;;0.20;;
9459;SDS011;4768;42.664;23.240;2023-02-28T06:09:35;0.33;;;0.33;;
9459;SDS011;4768;42.664;23.240;2023-02-28T06:12:03;0.73;;;0.50;;
9459;SDS011;4768;42.664;23.240;2023-02-28T06:14:32;2.90;;;1.07;;
9459;SDS011;4768;42.664;23.240;2023-02-28T06:16:59;0.87;;;0.70;;
9459;SDS011;4768;42.664;23.240;2023-02-28T06:19:27;1.13;;;0.47;;
9459;SDS011;4768;42.664;23.240;2023-02-28T06:21:55;2.47;;;0.80;;
9459;SDS011;4768;42.664;23.240;2023-02-28T06:24:23;0.13;;;0.13;;
9459;SDS011;4768;42.664;23.240;2023-02-28T06:26:53;0.73;;;0.73;;
9459;SDS011;4768;42.664;23.240;2023-02-28T06:29:21;0.00;;;0.00;;
9459;SDS011;4768;42.664;23.240;2023-02-28T06:31:48;0.50;;;0.50;;
9459;SDS011;4768;42.664;23.240;2023-02-28T06:34:14;0.87;;;0.63;;
9459;SDS011;4768;42.664;23.240;2023-02-28T06:36:42;0.30;;;0.30;;
9459;SDS011;4768;42.664;23.240;2023-02-28T06:39:09;0.77;;;0.73;;
9459;SDS011;4768;42.664;23.240;2023-02-28T06:41:36;0.07;;;0.07;;
9459;SDS011;4768;42.664;23.240;2023-02-28T06:44:03;0.67;;;0.43;;
9459;SDS011;4768;42.664;23.240;2023-02-28T06:46:32;0.10;;;0.10;;
9459;SDS011;4768;42.664;23.240;2023-02-28T06:48:59;1.27;;;0.87;;
9459;SDS011;4768;42.664;23.240;2023-02-28T06:51:25;0.00;;;0.00;;
9459;SDS011;4768;42.664;23.240;2023-02-28T06:53:52;0.50;;;0.40;;
9459;SDS011;4768;42.664;23.240;2023-02-28T06:56:19;1.03;;;0.93;;
9459;SDS011;4768;42.664;23.240;2023-02-28T06:58:46;0.63;;;0.47;;
9459;SDS011;4768;42.664;23.240;2023-02-28T07:01:13;1.93;;;1.03;;
9459;SDS011;4768;42.664;23.240;2023-02-28T07:03:41;0.50;;;0.50;;
9459;SDS011;4768;42.664;23.240;2023-02-28T07:06:08;2.63;;;1.87;;
9459;SDS011;4768;42.664;23.240;2023-02-28T07:08:35;1.53;;;0.87;;
9459;SDS011;4768;42.664;23.240;2023-02-28T07:11:02;0.93;;;0.60;;
9459;SDS011;4768;42.664;23.240;2023-02-28T07:13:30;2.30;;;1.53;;
9459;SDS011;4768;42.664;23.240;2023-02-28T07:15:58;1.37;;;1.13;;
9459;SDS011;4768;42.664;23.240;2023-02-28T07:18:26;2.70;;;1.63;;
9459;SDS011;4768;42.664;23.240;2023-02-28T07:20:54;1.30;;;1.07;;
9459;SDS011;4768;42.664;23.240;2023-02-28T07:23:21;3.53;;;2.17;;
9459;SDS011;4768;42.664;23.240;2023-02-28T07:25:48;1.90;;;1.07;;
9459;SDS011;4768;42.664;23.240;2023-02-28T07:28:15;1.00;;;0.93;;
9459;SDS011;4768;42.664;23.240;2023-02-28T07:30:42;1.80;;;1.43;;
9459;SDS011;4768;42.664;23.240;2023-02-28T07:33:09;2.27;;;1.60;;
9459;SDS011;4768;42.664;23.240;2023-02-28T07:35:36;1.27;;;1.13;;
9459;SDS011;4768;42.664;23.240;2023-02-28T07:38:04;1.80;;;1.30;;
9459;SDS011;4768;42.664;23.240;2023-02-28T07:40:32;0.67;;;0.67;;
9459;SDS011;4768;42.664;23.240;2023-02-28T07:42:59;2.37;;;0.43;;
9459;SDS011;4768;42.664;23.240;2023-02-28T07:45:26;1.00;;;1.00;;
9459;SDS011;4768;42.664;23.240;2023-02-28T07:47:55;2.37;;;1.33;;
9459;SDS011;4768;42.664;23.240;2023-02-28T07:50:22;1.07;;;1.03;;
9459;SDS011;4768;42.664;23.240;2023-02-28T07:52:49;0.73;;;0.73;;
9459;SDS011;4768;42.664;23.240;2023-02-28T07:55:17;0.90;;;0.90;;
9459;SDS011;4768;42.664;23.240;2023-02-28T07:57:44;3.80;;;1.17;;
9459;SDS011;4768;42.664;23.240;2023-02-28T08:00:11;2.90;;;1.50;;
9459;SDS011;4768;42.664;23.240;2023-02-28T08:02:38;0.17;;;0.17;;
9459;SDS011;4768;42.664;23.240;2023-02-28T08:05:07;0.70;;;0.63;;
9459;SDS011;4768;42.664;23.240;2023-02-28T08:07:35;0.20;;;0.20;;
9459;SDS011;4768;42.664;23.240;2023-02-28T08:10:04;1.23;;;0.67;;
9459;SDS011;4768;42.664;23.240;2023-02-28T08:15:01;2.97;;;0.80;;
9459;SDS011;4768;42.664;23.240;2023-02-28T08:17:27;1.50;;;1.27;;
9459;SDS011;4768;42.664;23.240;2023-02-28T08:19:55;1.83;;;0.53;;
9459;SDS011;4768;42.664;23.240;2023-02-28T08:22:21;1.60;;;1.20;;
9459;SDS011;4768;42.664;23.240;2023-02-28T08:24:48;2.23;;;1.80;;
9459;SDS011;4768;42.664;23.240;2023-02-28T08:27:15;0.40;;;0.40;;
9459;SDS011;4768;42.664;23.240;2023-02-28T08:29:43;0.90;;;0.90;;
9459;SDS011;4768;42.664;23.240;2023-02-28T08:32:10;3.83;;;1.00;;
9459;SDS011;4768;42.664;23.240;2023-02-28T08:34:38;2.20;;;0.67;;
9459;SDS011;4768;42.664;23.240;2023-02-28T08:37:05;6.97;;;1.33;;
9459;SDS011;4768;42.664;23.240;2023-02-28T08:39:33;2.77;;;0.83;;
9459;SDS011;4768;42.664;23.240;2023-02-28T08:42:00;3.90;;;1.63;;
9459;SDS011;4768;42.664;23.240;2023-02-28T08:44:27;0.43;;;0.43;;
9459;SDS011;4768;42.664;23.240;2023-02-28T08:46:55;3.30;;;1.50;;
9459;SDS011;4768;42.664;23.240;2023-02-28T08:49:22;2.17;;;1.17;;
9459;SDS011;4768;42.664;23.240;2023-02-28T08:51:49;1.17;;;0.87;;
9459;SDS011;4768;42.664;23.240;2023-02-28T08:54:15;1.00;;;1.00;;
9459;SDS011;4768;42.664;23.240;2023-02-28T08:56:44;3.03;;;1.20;;
9459;SDS011;4768;42.664;23.240;2023-02-28T08:59:11;0.10;;;0.10;;
9459;SDS011;4768;42.664;23.240;2023-02-28T09:01:38;1.80;;;1.30;;
9459;SDS011;4768;42.664;23.240;2023-02-28T09:04:07;2.03;;;1.63;;
9459;SDS011;4768;42.664;23.240;2023-02-28T09:06:35;0.53;;;0.53;;
9459;SDS011;4768;42.664;23.240;2023-02-28T09:09:02;0.77;;;0.77;;
9459;SDS011;4768;42.664;23.240;2023-02-28T09:11:31;1.93;;;1.73;;
9459;SDS011;4768;42.664;23.240;2023-02-28T09:13:58;5.33;;;1.50;;
9459;SDS011;4768;42.664;23.240;2023-02-28T09:16:25;5.60;;;2.07;;
9459;SDS011;4768;42.664;23.240;2023-02-28T09:18:52;6.30;;;2.43;;
9459;SDS011;4768;42.664;23.240;2023-02-28T09:21:20;3.10;;;1.37;;
9459;SDS011;4768;42.664;23.240;2023-02-28T09:23:48;1.33;;;1.20;;
9459;SDS011;4768;42.664;23.240;2023-02-28T09:26:17;2.83;;;2.13;;
9459;SDS011;4768;42.664;23.240;2023-02-28T09:28:45;0.50;;;0.50;;
9459;SDS011;4768;42.664;23.240;2023-02-28T09:31:12;1.60;;;0.93;;
9459;SDS011;4768;42.664;23.240;2023-02-28T09:33:40;1.80;;;1.30;;
9459;SDS011;4768;42.664;23.240;2023-02-28T09:36:07;2.70;;;1.70;;
9459;SDS011;4768;42.664;23.240;2023-02-28T09:38:35;2.53;;;1.97;;
9459;SDS011;4768;42.664;23.240;2023-02-28T09:41:03;3.57;;;2.87;;
9459;SDS011;4768;42.664;23.240;2023-02-28T09:43:37;3.03;;;1.13;;
9459;SDS011;4768;42.664;23.240;2023-02-28T09:46:08;1.57;;;1.47;;
9459;SDS011;4768;42.664;23.240;2023-02-28T09:48:44;1.30;;;1.20;;
9459;SDS011;4768;42.664;23.240;2023-02-28T09:51:15;1.40;;;1.30;;
9459;SDS011;4768;42.664;23.240;2023-02-28T09:53:57;27.47;;;3.00;;
9459;SDS011;4768;42.664;23.240;2023-02-28T09:56:25;1.93;;;1.80;;
9459;SDS011;4768;42.664;23.240;2023-02-28T09:58:57;2.60;;;1.93;;
9459;SDS011;4768;42.664;23.240;2023-02-28T10:01:28;1.93;;;1.83;;
9459;SDS011;4768;42.664;23.240;2023-02-28T10:04:02;2.00;;;1.73;;
9459;SDS011;4768;42.664;23.240;2023-02-28T10:06:35;4.80;;;2.07;;
9459;SDS011;4768;42.664;23.240;2023-02-28T10:09:10;3.13;;;1.47;;
9459;SDS011;4768;42.664;23.240;2023-02-28T10:11:40;4.77;;;1.90;;
9459;SDS011;4768;42.664;23.240;2023-02-28T10:14:10;2.63;;;1.83;;
9459;SDS011;4768;42.664;23.240;2023-02-28T10:16:41;2.20;;;0.87;;
9459;SDS011;4768;42.664;23.240;2023-02-28T10:19:17;3.80;;;1.87;;
9459;SDS011;4768;42.664;23.240;2023-02-28T10:21:49;0.40;;;0.40;;
9459;SDS011;4768;42.664;23.240;2023-02-28T10:24:26;2.43;;;2.03;;
9459;SDS011;4768;42.664;23.240;2023-02-28T10:26:56;1.27;;;1.17;;
9459;SDS011;4768;42.664;23.240;2023-02-28T10:29:27;4.73;;;1.60;;
9459;SDS011;4768;42.664;23.240;2023-02-28T10:31:54;4.57;;;2.03;;
9459;SDS011;4768;42.664;23.240;2023-02-28T10:34:22;2.73;;;1.43;;
9459;SDS011;4768;42.664;23.240;2023-02-28T10:36:50;2.83;;;1.13;;
9459;SDS011;4768;42.664;23.240;2023-02-28T10:39:35;4.00;;;2.33;;
9459;SDS011;4768;42.664;23.240;2023-02-28T10:42:20;2.63;;;1.50;;
9459;SDS011;4768;42.664;23.240;2023-02-28T10:47:38;1.93;;;1.73;;
9459;SDS011;4768;42.664;23.240;2023-02-28T10:53:16;2.57;;;2.20;;
9459;SDS011;4768;42.664;23.240;2023-02-28T10:55:57;1.47;;;1.37;;
9459;SDS011;4768;42.664;23.240;2023-02-28T10:58:27;1.27;;;0.77;;
9459;SDS011;4768;42.664;23.240;2023-02-28T11:00:55;1.93;;;1.40;;
9459;SDS011;4768;42.664;23.240;2023-02-28T11:03:23;0.93;;;0.93;;
9459;SDS011;4768;42.664;23.240;2023-02-28T11:05:51;0.67;;;0.67;;
9459;SDS011;4768;42.664;23.240;2023-02-28T11:08:18;0.43;;;0.43;;
9459;SDS011;4768;42.664;23.240;2023-02-28T11:10:45;2.83;;;0.63;;
9459;SDS011;4768;42.664;23.240;2023-02-28T11:13:19;1.20;;;0.73;;
9459;SDS011;4768;42.664;23.240;2023-02-28T11:15:50;4.10;;;1.53;;
9459;SDS011;4768;42.664;23.240;2023-02-28T11:18:20;0.23;;;0.23;;
9459;SDS011;4768;42.664;23.240;2023-02-28T11:20:51;0.33;;;0.33;;
9459;SDS011;4768;42.664;23.240;2023-02-28T11:23:20;0.30;;;0.23;;
9459;SDS011;4768;42.664;23.240;2023-02-28T11:25:51;2.17;;;0.53;;
9459;SDS011;4768;42.664;23.240;2023-02-28T11:28:25;1.17;;;0.70;;
9459;SDS011;4768;42.664;23.240;2023-02-28T11:31:01;1.07;;;0.60;;
9459;SDS011;4768;42.664;23.240;2023-02-28T11:33:40;0.83;;;0.73;;
9459;SDS011;4768;42.664;23.240;2023-02-28T11:36:11;1.13;;;0.87;;
9459;SDS011;4768;42.664;23.240;2023-02-28T11:38:39;0.20;;;0.20;;
9459;SDS011;4768;42.664;23.240;2023-02-28T11:41:13;2.30;;;0.57;;
9459;SDS011;4768;42.664;23.240;2023-02-28T11:46:47;1.10;;;0.67;;
9459;SDS011;4768;42.664;23.240;2023-02-28T11:49:23;5.17;;;1.40;;
9459;SDS011;4768;42.664;23.240;2023-02-28T11:52:00;18.87;;;1.33;;
9459;SDS011;4768;42.664;23.240;2023-02-28T11:57:33;3.73;;;0.90;;
9459;SDS011;4768;42.664;23.240;2023-02-28T12:00:14;0.83;;;0.73;;
9459;SDS011;4768;42.664;23.240;2023-02-28T12:03:00;0.83;;;0.83;;
9459;SDS011;4768;42.664;23.240;2023-02-28T12:05:37;0.93;;;0.73;;
9459;SDS011;4768;42.664;23.240;2023-02-28T12:08:15;0.93;;;0.70;;
9459;SDS011;4768;42.664;23.240;2023-02-28T12:10:56;1.03;;;0.80;;
9459;SDS011;4768;42.664;23.240;2023-02-28T12:13:29;3.50;;;0.57;;
9459;SDS011;4768;42.664;23.240;2023-02-28T12:16:14;2.63;;;1.70;;
9459;SDS011;4768;42.664;23.240;2023-02-28T12:19:16;0.73;;;0.50;;
9459;SDS011;4768;42.664;23.240;2023-02-28T12:22:05;1.33;;;1.17;;
9459;SDS011;4768;42.664;23.240;2023-02-28T12:24:51;0.37;;;0.30;;
9459;SDS011;4768;42.664;23.240;2023-02-28T12:27:29;2.83;;;1.83;;
9459;SDS011;4768;42.664;23.240;2023-02-28T12:30:01;1.20;;;0.67;;
9459;SDS011;4768;42.664;23.240;2023-02-28T12:32:34;1.40;;;0.70;;
9459;SDS011;4768;42.664;23.240;2023-02-28T12:35:04;2.80;;;1.27;;
9459;SDS011;4768;42.664;23.240;2023-02-28T12:37:40;1.20;;;1.10;;
9459;SDS011;4768;42.664;23.240;2023-02-28T12:40:11;0.70;;;0.70;;
9459;SDS011;4768;42.664;23.240;2023-02-28T12:42:42;0.53;;;0.53;;
9459;SDS011;4768;42.664;23.240;2023-02-28T12:45:13;2.20;;;1.80;;
9459;SDS011;4768;42.664;23.240;2023-02-28T12:47:48;1.93;;;1.13;;
9459;SDS011;4768;42.664;23.240;2023-02-28T12:50:18;0.47;;;0.43;;
9459;SDS011;4768;42.664;23.240;2023-02-28T12:52:48;0.90;;;0.63;;
9459;SDS011;4768;42.664;23.240;2023-02-28T12:55:23;2.03;;;1.13;;
9459;SDS011;4768;42.664;23.240;2023-02-28T12:58:01;2.23;;;1.07;;
9459;SDS011;4768;42.664;23.240;2023-02-28T13:00:37;1.37;;;1.17;;
9459;SDS011;4768;42.664;23.240;2023-02-28T13:03:19;0.97;;;0.80;;
9459;SDS011;4768;42.664;23.240;2023-02-28T13:06:08;0.30;;;0.30;;
9459;SDS011;4768;42.664;23.240;2023-02-28T13:11:42;0.90;;;0.40;;
9459;SDS011;4768;42.664;23.240;2023-02-28T13:14:18;3.37;;;1.70;;
9459;SDS011;4768;42.664;23.240;2023-02-28T13:16:57;1.67;;;1.10;;
9459;SDS011;4768;42.664;23.240;2023-02-28T13:19:29;0.73;;;0.73;;
9459;SDS011;4768;42.664;23.240;2023-02-28T13:21:59;4.23;;;1.63;;
9459;SDS011;4768;42.664;23.240;2023-02-28T13:24:37;0.70;;;0.70;;
9459;SDS011;4768;42.664;23.240;2023-02-28T13:27:20;5.60;;;1.13;;
9459;SDS011;4768;42.664;23.240;2023-02-28T13:29:51;0.40;;;0.30;;
9459;SDS011;4768;42.664;23.240;2023-02-28T13:32:32;0.60;;;0.57;;
9459;SDS011;4768;42.664;23.240;2023-02-28T13:38:12;0.30;;;0.30;;
9459;SDS011;4768;42.664;23.240;2023-02-28T13:40:43;3.40;;;1.20;;
9459;SDS011;4768;42.664;23.240;2023-02-28T13:43:10;0.53;;;0.53;;
9459;SDS011;4768;42.664;23.240;2023-02-28T13:45:37;1.60;;;0.97;;
9459;SDS011;4768;42.664;23.240;2023-02-28T13:48:05;0.70;;;0.70;;
9459;SDS011;4768;42.664;23.240;2023-02-28T13:50:43;0.60;;;0.60;;
9459;SDS011;4768;42.664;23.240;2023-02-28T13:53:26;0.53;;;0.53;;
9459;SDS011;4768;42.664;23.240;2023-02-28T13:56:07;4.60;;;1.13;;
9459;SDS011;4768;42.664;23.240;2023-02-28T13:58:47;0.70;;;0.70;;
9459;SDS011;4768;42.664;23.240;2023-02-28T14:01:25;0.93;;;0.50;;
9459;SDS011;4768;42.664;23.240;2023-02-28T14:04:19;0.40;;;0.40;;
9459;SDS011;4768;42.664;23.240;2023-02-28T14:07:00;3.53;;;0.47;;
9459;SDS011;4768;42.664;23.240;2023-02-28T14:09:30;0.37;;;0.37;;
9459;SDS011;4768;42.664;23.240;2023-02-28T14:15:01;25.67;;;13.10;;
9459;SDS011;4768;42.664;23.240;2023-02-28T14:17:28;27.77;;;13.67;;
9459;SDS011;4768;42.664;23.240;2023-02-28T14:19:55;31.17;;;14.37;;
9459;SDS011;4768;42.664;23.240;2023-02-28T14:22:40;25.97;;;12.00;;
9459;SDS011;4768;42.664;23.240;2023-02-28T14:25:20;26.80;;;12.90;;
9459;SDS011;4768;42.664;23.240;2023-02-28T14:27:56;27.87;;;12.93;;
9459;SDS011;4768;42.664;23.240;2023-02-28T14:30:42;24.00;;;13.03;;
9459;SDS011;4768;42.664;23.240;2023-02-28T14:33:31;25.40;;;12.33;;
9459;SDS011;4768;42.664;23.240;2023-02-28T14:36:10;19.53;;;11.93;;
9459;SDS011;4768;42.664;23.240;2023-02-28T14:38:43;23.97;;;11.47;;
9459;SDS011;4768;42.664;23.240;2023-02-28T14:41:18;25.53;;;12.83;;
9459;SDS011;4768;42.664;23.240;2023-02-28T14:43:51;25.23;;;12.70;;
9459;SDS011;4768;42.664;23.240;2023-02-28T14:46:20;25.10;;;12.63;;
9459;SDS011;4768;42.664;23.240;2023-02-28T14:48:49;21.53;;;12.00;;
9459;SDS011;4768;42.664;23.240;2023-02-28T14:51:20;23.60;;;13.40;;
9459;SDS011;4768;42.664;23.240;2023-02-28T14:53:48;24.03;;;11.73;;
9459;SDS011;4768;42.664;23.240;2023-02-28T14:56:28;20.67;;;11.83;;
9459;SDS011;4768;42.664;23.240;2023-02-28T14:59:00;24.77;;;12.07;;
9459;SDS011;4768;42.664;23.240;2023-02-28T15:01:27;20.50;;;11.73;;
9459;SDS011;4768;42.664;23.240;2023-02-28T15:03:58;20.80;;;12.27;;
9459;SDS011;4768;42.664;23.240;2023-02-28T15:06:27;25.60;;;12.43;;
9459;SDS011;4768;42.664;23.240;2023-02-28T15:09:08;18.57;;;10.83;;
9459;SDS011;4768;42.664;23.240;2023-02-28T15:11:38;26.07;;;11.83;;
9459;SDS011;4768;42.664;23.240;2023-02-28T15:14:06;22.30;;;11.90;;
9459;SDS011;4768;42.664;23.240;2023-02-28T15:16:34;22.50;;;11.80;;
9459;SDS011;4768;42.664;23.240;2023-02-28T15:19:05;27.33;;;12.93;;
9459;SDS011;4768;42.664;23.240;2023-02-28T15:21:40;26.43;;;13.33;;
9459;SDS011;4768;42.664;23.240;2023-02-28T15:24:11;21.03;;;12.40;;
9459;SDS011;4768;42.664;23.240;2023-02-28T15:26:50;24.53;;;12.87;;
9459;SDS011;4768;42.664;23.240;2023-02-28T15:29:21;23.93;;;12.27;;
9459;SDS011;4768;42.664;23.240;2023-02-28T15:31:50;27.53;;;13.30;;
9459;SDS011;4768;42.664;23.240;2023-02-28T15:34:22;35.77;;;14.03;;
9459;SDS011;4768;42.664;23.240;2023-02-28T15:36:54;34.50;;;13.93;;
9459;SDS011;4768;42.664;23.240;2023-02-28T15:39:22;22.17;;;11.33;;
9459;SDS011;4768;42.664;23.240;2023-02-28T15:41:51;25.47;;;12.93;;
9459;SDS011;4768;42.664;23.240;2023-02-28T15:44:23;26.33;;;12.63;;
9459;SDS011;4768;42.664;23.240;2023-02-28T15:46:57;19.87;;;11.67;;
9459;SDS011;4768;42.664;23.240;2023-02-28T15:49:28;20.37;;;11.80;;